Time;durP1;ratioP1;P1;durP2;ratioP2;P2;SDS_P1;SDS_P2;PMS_P1;PMS_P2;Temp;Humidity;BMP_temperature;BMP_pressure;BME280_temperature;BME280_humidity;BME280_pressure;Samples;Min_cycle;Max_cycle;Signal;HPM_P1;HPM_P2
2022/11/22 00:00:43;;;;;;;5.23;2.73;;;;;;;8.27;100.00;94418.19;5096492;28;20201;-76
2022/11/22 00:03:10;;;;;;;3.37;2.83;;;;;;;8.23;100.00;94423.31;5079086;28;20333;-77
2022/11/22 00:05:39;;;;;;;5.10;2.80;;;;;;;8.16;100.00;94421.94;5079981;28;20193;-77
2022/11/22 00:08:07;;;;;;;3.20;2.50;;;;;;;8.04;100.00;94426.72;5089143;28;20220;-77
2022/11/22 00:10:34;;;;;;;7.13;2.97;;;;;;;8.03;100.00;94422.41;5100810;28;20250;-76
2022/11/22 00:13:01;;;;;;;3.13;2.70;;;;;;;7.97;100.00;94422.38;5093461;28;20215;-76
2022/11/22 00:15:28;;;;;;;3.80;3.10;;;;;;;7.94;100.00;94425.56;5083920;28;20291;-77
2022/11/22 00:17:55;;;;;;;4.63;3.00;;;;;;;7.89;100.00;94417.50;5083805;28;20307;-76
2022/11/22 00:20:23;;;;;;;3.60;3.03;;;;;;;7.90;100.00;94421.81;5088437;28;20203;-77
2022/11/22 00:22:52;;;;;;;4.10;3.00;;;;;;;7.82;100.00;94427.69;5093001;28;20273;-76
2022/11/22 00:25:19;;;;;;;3.93;3.50;;;;;;;7.76;100.00;94434.06;5091077;28;20267;-76
2022/11/22 00:27:46;;;;;;;4.43;2.90;;;;;;;7.75;100.00;94431.63;5087319;28;20208;-76
2022/11/22 00:30:14;;;;;;;6.93;3.13;;;;;;;7.76;100.00;94434.06;5084938;28;20193;-76
2022/11/22 00:32:41;;;;;;;5.13;2.60;;;;;;;7.79;100.00;94433.56;5095556;28;20230;-78
2022/11/22 00:35:09;;;;;;;4.07;3.10;;;;;;;7.80;100.00;94432.50;5088344;28;20196;-76
2022/11/22 00:37:36;;;;;;;4.80;2.83;;;;;;;7.85;100.00;94423.63;5088897;28;20264;-76
2022/11/22 00:40:06;;;;;;;3.30;2.70;;;;;;;7.87;100.00;94426.88;5069757;28;20209;-77
2022/11/22 00:42:34;;;;;;;6.77;3.13;;;;;;;7.83;100.00;94423.88;5089544;28;20222;-77
2022/11/22 00:45:01;;;;;;;3.07;2.80;;;;;;;7.77;100.00;94416.88;5095082;28;20204;-77
2022/11/22 00:47:28;;;;;;;3.73;3.00;;;;;;;7.82;100.00;94424.19;5095428;28;20240;-77
2022/11/22 00:49:55;;;;;;;3.60;2.83;;;;;;;7.80;100.00;94429.81;5073152;28;20230;-76
2022/11/22 00:52:22;;;;;;;4.87;2.70;;;;;;;7.77;100.00;94437.56;5077497;28;20202;-78
2022/11/22 00:54:50;;;;;;;4.77;2.87;;;;;;;7.69;100.00;94430.78;5082774;28;20201;-77
2022/11/22 00:57:19;;;;;;;6.80;2.77;;;;;;;7.79;100.00;94432.75;5082470;28;20240;-76
2022/11/22 00:59:46;;;;;;;5.00;3.50;;;;;;;7.74;100.00;94436.19;5085991;28;20254;-77
2022/11/22 01:02:13;;;;;;;4.77;2.70;;;;;;;7.70;100.00;94435.09;5088973;28;20253;-76
2022/11/22 01:04:40;;;;;;;5.90;3.00;;;;;;;7.80;100.00;94442.44;5082999;28;20227;-77
2022/11/22 01:07:07;;;;;;;5.63;3.33;;;;;;;7.77;100.00;94437.56;5082693;28;20213;-76
2022/11/22 01:09:34;;;;;;;5.40;2.80;;;;;;;7.78;100.00;94441.88;5087384;28;20197;-77
2022/11/22 01:12:01;;;;;;;5.37;2.53;;;;;;;7.80;100.00;94451.31;5079417;28;20208;-76
2022/11/22 01:14:29;;;;;;;6.00;2.40;;;;;;;7.80;100.00;94453.97;5078942;28;20190;-77
2022/11/22 01:16:57;;;;;;;3.03;2.47;;;;;;;7.79;100.00;94460.41;5082319;28;20228;-76
2022/11/22 01:19:24;;;;;;;2.90;2.60;;;;;;;7.79;100.00;94459.59;5080021;28;20208;-76
2022/11/22 01:21:51;;;;;;;5.97;2.73;;;;;;;7.77;100.00;94461.75;5093627;28;20236;-76
2022/11/22 01:24:18;;;;;;;4.17;2.73;;;;;;;7.73;100.00;94464.16;5088931;28;20200;-78
2022/11/22 01:26:45;;;;;;;4.87;3.00;;;;;;;7.73;100.00;94464.16;5088883;28;20223;-78
2022/11/22 01:29:12;;;;;;;3.30;2.50;;;;;;;7.69;100.00;94464.91;5089541;28;20223;-77
2022/11/22 01:31:41;;;;;;;3.87;2.77;;;;;;;7.67;100.00;94464.34;5086796;28;20209;-77
2022/11/22 01:34:08;;;;;;;4.43;3.03;;;;;;;7.59;100.00;94466.44;5081157;28;20212;-76
2022/11/22 01:36:35;;;;;;;2.70;2.50;;;;;;;7.62;100.00;94469.69;5083901;28;20268;-76
2022/11/22 01:39:02;;;;;;;4.73;3.07;;;;;;;7.62;100.00;94475.06;5093378;28;20285;-77
2022/11/22 01:41:30;;;;;;;5.80;3.20;;;;;;;7.63;100.00;94482.06;5091692;28;20214;-76
2022/11/22 01:43:57;;;;;;;6.23;2.83;;;;;;;7.54;100.00;94463.75;5081127;28;20208;-76
2022/11/22 01:46:32;;;;;;;3.27;2.60;;;;;;;7.63;100.00;94474.00;5087194;28;20201;-76
2022/11/22 01:49:04;;;;;;;4.10;2.47;;;;;;;7.56;100.00;94460.81;5091749;28;20224;-79
2022/11/22 01:51:38;;;;;;;4.20;3.50;;;;;;;7.53;100.00;94466.69;5077763;28;20227;-76
2022/11/22 01:54:11;;;;;;;3.97;2.90;;;;;;;7.55;100.00;94468.03;5079463;28;20207;-76
2022/11/22 01:56:40;;;;;;;4.70;2.90;;;;;;;7.56;100.00;94466.97;5089547;28;20201;-75
2022/11/22 01:59:12;;;;;;;4.73;2.97;;;;;;;7.56;100.00;94476.91;5102181;28;20351;-76
2022/11/22 02:01:39;;;;;;;4.30;2.80;;;;;;;7.56;100.00;94476.91;5099370;27;20206;-75
2022/11/22 02:04:12;;;;;;;4.60;3.13;;;;;;;7.54;100.00;94487.91;5084086;28;20202;-76
2022/11/22 02:06:47;;;;;;;4.90;3.40;;;;;;;7.53;100.00;94494.34;5099270;28;20289;-75
2022/11/22 02:09:15;;;;;;;3.30;3.00;;;;;;;7.52;100.00;94487.34;5084792;28;20220;-77
2022/11/22 02:11:48;;;;;;;3.57;3.17;;;;;;;7.48;100.00;94494.31;5086667;28;20212;-78
2022/11/22 02:14:18;;;;;;;8.10;3.30;;;;;;;7.39;100.00;94486.97;5109213;28;20238;-75
2022/11/22 02:16:47;;;;;;;4.80;3.20;;;;;;;7.28;100.00;94486.06;5089465;28;20254;-75
2022/11/22 02:19:20;;;;;;;3.77;3.37;;;;;;;7.28;100.00;94498.69;5084435;28;20197;-75
2022/11/22 02:21:54;;;;;;;4.43;3.27;;;;;;;7.26;100.00;94504.28;5093438;28;20292;-76
2022/11/22 02:24:26;;;;;;;6.23;3.60;;;;;;;7.23;100.00;94499.44;5091792;28;20236;-76
2022/11/22 02:26:55;;;;;;;5.10;3.70;;;;;;;7.21;100.00;94506.94;5082315;28;20217;-76
2022/11/22 02:29:22;;;;;;;4.13;3.63;;;;;;;7.15;100.00;94508.75;5080448;28;20223;-75
2022/11/22 02:31:49;;;;;;;4.83;3.13;;;;;;;7.12;100.00;94513.84;5083104;28;20223;-75
2022/11/22 02:34:16;;;;;;;3.10;2.60;;;;;;;7.09;100.00;94509.78;5087397;28;20217;-76
2022/11/22 02:36:48;;;;;;;2.43;2.07;;;;;;;7.02;100.00;94508.34;5091957;28;20254;-75
2022/11/22 02:39:17;;;;;;;1.70;1.50;;;;;;;7.02;100.00;94508.34;5094576;28;20201;-75
2022/11/22 02:41:45;;;;;;;2.80;1.57;;;;;;;6.91;100.00;94509.31;5091049;28;20205;-75
2022/11/22 02:44:14;;;;;;;2.67;1.40;;;;;;;6.84;100.00;94499.59;5101013;28;20270;-75
2022/11/22 02:46:48;;;;;;;2.07;1.37;;;;;;;6.88;100.00;94513.31;5082646;28;20211;-75
2022/11/22 02:49:18;;;;;;;1.90;1.50;;;;;;;6.79;100.00;94520.19;5087882;28;20251;-75
2022/11/22 02:51:45;;;;;;;1.43;1.17;;;;;;;6.69;100.00;94531.59;5089847;28;20235;-76
2022/11/22 02:54:12;;;;;;;1.50;1.13;;;;;;;6.62;100.00;94525.63;5086298;28;20193;-76
2022/11/22 02:56:39;;;;;;;1.87;1.30;;;;;;;6.57;100.00;94527.41;5092677;28;20232;-76
2022/11/22 02:59:09;;;;;;;0.97;0.90;;;;;;;6.49;100.00;94536.72;5075204;28;20213;-77
2022/11/22 03:01:38;;;;;;;1.37;1.17;;;;;;;6.44;100.00;94539.34;5089059;28;20202;-76
2022/11/22 03:04:08;;;;;;;2.47;1.00;;;;;;;6.41;100.00;94529.91;5082697;28;20205;-74
2022/11/22 03:06:35;;;;;;;1.70;0.90;;;;;;;6.36;100.00;94537.91;5088004;28;20201;-76
2022/11/22 03:09:03;;;;;;;1.10;1.00;;;;;;;6.28;100.00;94532.16;5093340;28;20216;-76
2022/11/22 03:11:30;;;;;;;0.80;0.80;;;;;;;6.22;100.00;94530.44;5081486;28;20221;-75
2022/11/22 03:13:57;;;;;;;0.87;0.87;;;;;;;6.28;100.00;94540.19;5081434;28;20204;-75
2022/11/22 03:16:24;;;;;;;0.60;0.60;;;;;;;6.20;100.00;94535.25;5104403;27;20258;-75
2022/11/22 03:18:53;;;;;;;0.87;0.87;;;;;;;6.19;100.00;94525.59;5088992;28;20202;-74
2022/11/22 03:21:20;;;;;;;1.57;1.00;;;;;;;6.19;100.00;94526.41;5082730;28;20209;-75
2022/11/22 03:23:47;;;;;;;0.80;0.80;;;;;;;6.16;100.00;94512.69;5105534;28;20215;-75
2022/11/22 03:26:15;;;;;;;1.33;1.00;;;;;;;6.23;100.00;94521.34;5089383;28;20201;-75
2022/11/22 03:28:42;;;;;;;1.33;0.80;;;;;;;6.19;100.00;94512.19;5102592;28;20273;-76
2022/11/22 03:31:09;;;;;;;1.97;1.30;;;;;;;6.15;100.00;94500.34;5101557;28;20209;-77
2022/11/22 03:33:36;;;;;;;0.93;0.77;;;;;;;6.21;100.00;94512.78;5090443;28;20201;-76
2022/11/22 03:36:08;;;;;;;0.73;0.73;;;;;;;6.20;100.00;94511.97;5078246;28;20228;-75
2022/11/22 03:38:36;;;;;;;0.73;0.70;;;;;;;6.15;100.00;94509.19;5086632;28;20327;-75
2022/11/22 03:41:03;;;;;;;3.57;0.97;;;;;;;6.10;100.00;94511.00;5088401;28;20197;-74
2022/11/22 03:43:30;;;;;;;1.57;0.90;;;;;;;6.10;100.00;94513.69;5089316;28;20208;-75
2022/11/22 03:45:57;;;;;;;1.80;0.73;;;;;;;6.11;100.00;94515.31;5080687;28;20193;-75
2022/11/22 03:48:24;;;;;;;0.70;0.70;;;;;;;6.08;100.00;94514.72;5076986;28;20217;-75
2022/11/22 03:50:51;;;;;;;1.03;0.80;;;;;;;6.08;100.00;94519.28;5087187;28;20224;-75
2022/11/22 03:53:20;;;;;;;1.37;0.67;;;;;;;6.05;100.00;94519.75;5087934;28;20215;-77
2022/11/22 03:55:47;;;;;;;0.80;0.80;;;;;;;6.06;100.00;94510.66;5087694;28;20211;-75
2022/11/22 03:58:14;;;;;;;0.80;0.80;;;;;;;6.01;100.00;94515.97;5085637;28;20205;-75
2022/11/22 04:00:41;;;;;;;0.97;0.70;;;;;;;6.02;100.00;94523.75;5088396;28;20193;-74
2022/11/22 04:03:08;;;;;;;0.73;0.73;;;;;;;6.04;100.00;94532.34;5098405;28;20231;-78
2022/11/22 04:05:35;;;;;;;0.70;0.70;;;;;;;6.04;100.00;94529.66;5084225;28;20205;-75
2022/11/22 04:08:02;;;;;;;2.33;0.90;;;;;;;6.07;100.00;94529.19;5079344;28;20433;-75
2022/11/22 04:10:30;;;;;;;1.23;0.80;;;;;;;6.00;100.00;94520.50;5086909;28;20233;-75
2022/11/22 04:12:59;;;;;;;3.30;0.83;;;;;;;6.07;100.00;94515.78;5087813;28;20291;-76
2022/11/22 04:15:25;;;;;;;2.87;0.90;;;;;;;6.05;100.00;94509.84;5080281;28;20208;-76
2022/11/22 04:17:53;;;;;;;1.83;0.90;;;;;;;6.01;100.00;94518.66;5080012;28;20204;-75
2022/11/22 04:23:09;;;;;;;0.97;0.77;;;;;;;5.98;100.00;94522.63;5089935;28;20224;-75
2022/11/22 04:25:37;;;;;;;1.07;1.07;;;;;;;5.99;100.00;94507.34;5087668;28;20237;-75
2022/11/22 04:28:06;;;;;;;2.73;1.07;;;;;;;5.96;100.00;94513.19;5098126;28;20295;-75
2022/11/22 04:33:19;;;;;;;1.40;1.10;;;;;;;5.89;100.00;94510.69;5088299;28;20204;-78
2022/11/22 04:35:46;;;;;;;1.00;0.90;;;;;;;5.85;100.00;94508.75;5091496;28;20197;-74
2022/11/22 04:38:14;;;;;;;1.17;1.00;;;;;;;5.83;100.00;94505.50;5089812;28;20265;-75
2022/11/22 04:40:43;;;;;;;2.23;1.10;;;;;;;5.90;100.00;94506.16;5091306;28;20210;-75
2022/11/22 04:45:59;;;;;;;4.27;3.13;;;;;;;5.88;100.00;94511.75;5077243;28;20236;-75
2022/11/22 04:48:26;;;;;;;3.83;2.40;;;;;;;5.86;100.00;94505.00;5101304;28;20216;-75
2022/11/22 04:53:38;;;;;;;1.40;1.23;;;;;;;5.78;100.00;94514.28;5088188;28;20424;-75
2022/11/22 04:56:08;;;;;;;2.87;1.60;;;;;;;5.81;100.00;94523.66;5089095;28;20207;-78
2022/11/22 04:58:35;;;;;;;1.23;1.10;;;;;;;5.82;100.00;94519.94;5085549;28;20193;-75
2022/11/22 05:01:02;;;;;;;1.60;1.20;;;;;;;5.78;100.00;94524.16;5084778;28;20213;-75
2022/11/22 05:03:29;;;;;;;2.17;1.30;;;;;;;5.73;100.00;94524.88;5084788;28;20300;-76
2022/11/22 05:05:56;;;;;;;2.03;1.30;;;;;;;5.69;100.00;94527.25;5089685;28;20208;-76
2022/11/22 05:08:23;;;;;;;2.87;1.30;;;;;;;5.67;100.00;94528.56;5099933;28;20223;-75
2022/11/22 05:10:59;;;;;;;3.27;1.70;;;;;;;5.66;100.00;94540.31;5091915;28;20212;-76
2022/11/22 05:13:30;;;;;;;3.67;1.50;;;;;;;5.65;100.00;94546.72;5094544;28;20213;-74
2022/11/22 05:15:58;;;;;;;2.27;1.30;;;;;;;5.64;100.00;94550.44;5095631;28;20209;-75
2022/11/22 05:18:26;;;;;;;1.60;1.50;;;;;;;5.64;100.00;94537.06;5086890;28;20220;-75
2022/11/22 05:20:53;;;;;;;3.73;1.40;;;;;;;5.63;100.00;94544.28;5084813;28;20196;-76
2022/11/22 05:26:09;;;;;;;2.27;1.57;;;;;;;5.54;100.00;94552.94;5087111;28;20212;-76
2022/11/22 05:28:38;;;;;;;1.50;1.27;;;;;;;5.51;100.00;94550.78;5095301;28;20228;-76
2022/11/22 05:31:10;;;;;;;3.47;1.77;;;;;;;5.50;100.00;94543.81;5092598;28;20205;-76
2022/11/22 05:33:39;;;;;;;1.33;1.23;;;;;;;5.52;100.00;94547.06;5076343;28;20208;-76
2022/11/22 05:36:08;;;;;;;2.93;1.50;;;;;;;5.60;100.00;94565.38;5074486;28;20202;-78
2022/11/22 05:38:36;;;;;;;3.17;2.00;;;;;;;5.72;100.00;94560.75;5077647;28;20209;-78
2022/11/22 05:41:04;;;;;;;1.87;1.60;;;;;;;5.75;100.00;94564.81;5091370;28;20203;-79
2022/11/22 05:43:34;;;;;;;3.97;1.50;;;;;;;5.80;100.00;94565.69;5087043;28;20205;-77
2022/11/22 05:46:08;;;;;;;1.40;1.30;;;;;;;5.86;100.00;94569.28;5078687;28;20231;-76
2022/11/22 05:48:35;;;;;;;1.63;1.30;;;;;;;5.81;100.00;94567.31;5096819;28;20201;-77
2022/11/22 05:51:08;;;;;;;1.73;1.40;;;;;;;5.75;100.00;94572.84;5099246;28;20235;-78
2022/11/22 05:53:36;;;;;;;3.40;2.00;;;;;;;5.73;100.00;94575.75;5087997;28;20235;-77
2022/11/22 05:56:05;;;;;;;3.33;2.27;;;;;;;5.79;100.00;94584.69;5074385;28;20224;-76
2022/11/22 05:58:32;;;;;;;4.47;2.00;;;;;;;5.89;100.00;94591.06;5095695;28;20240;-76
2022/11/22 06:01:03;;;;;;;3.33;1.70;;;;;;;5.92;100.00;94590.56;5080607;28;20197;-76
2022/11/22 06:03:32;;;;;;;1.50;1.30;;;;;;;5.93;100.00;94592.19;5086878;28;20269;-77
2022/11/22 06:05:59;;;;;;;2.10;1.37;;;;;;;5.86;100.00;94578.13;5103350;28;20236;-76
2022/11/22 06:08:29;;;;;;;3.27;1.50;;;;;;;5.90;100.00;94600.72;5081160;28;20212;-76
2022/11/22 06:11:03;;;;;;;2.97;1.73;;;;;;;5.94;100.00;94596.50;5079623;28;20229;-76
2022/11/22 06:13:35;;;;;;;3.00;1.57;;;;;;;5.90;100.00;94598.03;5095573;28;20269;-76
2022/11/22 06:16:02;;;;;;;1.90;1.30;;;;;;;5.86;100.00;94588.84;5087077;28;20212;-76
2022/11/22 06:18:30;;;;;;;1.30;1.20;;;;;;;6.00;100.00;94598.19;5089393;28;20295;-76
2022/11/22 06:21:00;;;;;;;1.43;1.13;;;;;;;5.89;100.00;94601.75;5097588;28;20216;-76
2022/11/22 06:23:28;;;;;;;1.70;0.90;;;;;;;5.84;100.00;94588.28;5086586;28;20201;-78
2022/11/22 06:25:58;;;;;;;2.83;1.17;;;;;;;5.87;100.00;94606.50;5087588;28;20204;-76
2022/11/22 06:28:27;;;;;;;3.07;1.03;;;;;;;5.84;100.00;94615.06;5091878;28;20239;-78
2022/11/22 06:30:54;;;;;;;1.77;1.20;;;;;;;5.85;100.00;94619.38;5088801;28;20214;-77
2022/11/22 06:33:21;;;;;;;1.30;1.13;;;;;;;5.88;100.00;94623.44;5084278;28;20212;-77
2022/11/22 06:35:48;;;;;;;1.10;1.00;;;;;;;5.87;100.00;94619.91;5087357;28;20205;-77
2022/11/22 06:38:18;;;;;;;1.17;1.00;;;;;;;5.88;100.00;94637.63;5090234;28;20205;-77
2022/11/22 06:40:45;;;;;;;1.27;1.17;;;;;;;5.80;100.00;94646.03;5091460;28;20201;-76
2022/11/22 06:43:12;;;;;;;2.20;1.17;;;;;;;5.77;100.00;94643.06;5086399;28;20221;-76
2022/11/22 06:45:39;;;;;;;1.57;1.07;;;;;;;5.71;100.00;94659.00;5081520;28;20201;-76
2022/11/22 06:48:08;;;;;;;1.60;1.50;;;;;;;5.75;100.00;94664.72;5097322;28;20200;-76
2022/11/22 06:50:36;;;;;;;1.17;1.07;;;;;;;5.80;100.00;94664.78;5090352;28;20227;-75
2022/11/22 06:53:03;;;;;;;1.33;1.10;;;;;;;5.73;100.00;94674.84;5083708;28;20205;-76
2022/11/22 06:55:31;;;;;;;1.87;1.20;;;;;;;5.75;100.00;94680.78;5088109;28;20259;-79
2022/11/22 06:57:58;;;;;;;2.40;0.97;;;;;;;5.68;100.00;94682.78;5087187;28;20253;-76
2022/11/22 07:00:25;;;;;;;1.40;1.00;;;;;;;5.75;100.00;94683.44;5086410;28;20192;-77
2022/11/22 07:02:52;;;;;;;2.93;1.30;;;;;;;5.75;100.00;94679.97;5086744;28;20214;-76
2022/11/22 07:05:20;;;;;;;2.10;1.00;;;;;;;5.77;100.00;94684.03;5096434;28;20204;-76
2022/11/22 07:07:47;;;;;;;0.70;0.70;;;;;;;5.72;100.00;94665.19;5097445;28;20258;-77
2022/11/22 07:10:14;;;;;;;0.70;0.70;;;;;;;5.76;100.00;94679.72;5093353;28;20213;-78
2022/11/22 07:12:43;;;;;;;0.70;0.70;;;;;;;5.68;100.00;94680.94;5088352;28;20230;-75
2022/11/22 07:15:11;;;;;;;0.93;0.80;;;;;;;5.75;100.00;94694.16;5091260;28;20204;-76
2022/11/22 07:17:38;;;;;;;1.03;0.60;;;;;;;5.69;100.00;94681.75;5085370;28;20206;-75
2022/11/22 07:20:06;;;;;;;0.70;0.70;;;;;;;5.75;100.00;94680.78;5090799;28;20200;-77
2022/11/22 07:22:33;;;;;;;0.60;0.60;;;;;;;5.74;100.00;94675.66;5084227;28;20207;-76
2022/11/22 07:25:00;;;;;;;0.87;0.60;;;;;;;5.78;100.00;94677.63;5095628;28;20208;-76
2022/11/22 07:27:27;;;;;;;0.60;0.60;;;;;;;5.78;100.00;94677.63;5089566;28;20287;-75
2022/11/22 07:29:56;;;;;;;0.57;0.57;;;;;;;5.72;100.00;94665.19;5091427;28;20208;-76
2022/11/22 07:32:24;;;;;;;1.00;0.77;;;;;;;5.81;100.00;94676.31;5090392;28;20239;-77
2022/11/22 07:34:51;;;;;;;0.67;0.60;;;;;;;5.88;100.00;94677.81;5096888;28;20235;-76
2022/11/22 07:37:19;;;;;;;0.60;0.60;;;;;;;5.91;100.00;94680.03;5088143;28;20192;-75
2022/11/22 07:39:46;;;;;;;0.80;0.80;;;;;;;5.92;100.00;94684.31;5092943;28;20318;-77
2022/11/22 07:42:13;;;;;;;2.93;0.80;;;;;;;5.91;100.00;94681.88;5079927;28;20201;-76
2022/11/22 07:44:44;;;;;;;0.93;0.80;;;;;;;5.89;100.00;94687.47;5109236;27;20208;-76
2022/11/22 07:47:13;;;;;;;1.90;0.90;;;;;;;5.82;100.00;94681.44;5093995;28;20208;-75
2022/11/22 07:49:40;;;;;;;1.30;1.20;;;;;;;5.83;100.00;94692.97;5097693;27;20229;-75
2022/11/22 07:52:07;;;;;;;3.23;1.50;;;;;;;5.88;100.00;94693.88;5094164;28;20215;-75
2022/11/22 07:54:34;;;;;;;1.50;0.90;;;;;;;5.94;100.00;94689.44;5098410;28;20193;-76
2022/11/22 07:57:01;;;;;;;2.80;1.07;;;;;;;5.86;100.00;94677.22;5078984;28;20229;-75
2022/11/22 07:59:28;;;;;;;2.20;1.30;;;;;;;5.96;100.00;94693.50;5101968;28;20199;-76
2022/11/22 08:01:55;;;;;;;1.17;1.00;;;;;;;5.92;100.00;94692.34;5091561;28;20193;-76
2022/11/22 08:04:23;;;;;;;2.53;1.40;;;;;;;5.97;100.00;94700.47;5086306;28;20193;-78
2022/11/22 08:06:50;;;;;;;4.53;1.67;;;;;;;5.87;100.00;94689.53;5076022;28;20236;-76
2022/11/22 08:09:17;;;;;;;1.33;1.23;;;;;;;5.82;100.00;94680.63;5080388;28;20198;-77
2022/11/22 08:11:44;;;;;;;2.33;1.63;;;;;;;5.82;100.00;94684.09;5096402;28;20224;-76
2022/11/22 08:14:12;;;;;;;1.43;1.20;;;;;;;5.91;100.00;94693.41;5092559;28;20213;-76
2022/11/22 08:16:39;;;;;;;2.23;1.20;;;;;;;5.87;100.00;94673.47;5085961;28;20206;-76
2022/11/22 08:19:06;;;;;;;1.13;1.03;;;;;;;5.83;100.00;94675.03;5094043;28;20241;-77
2022/11/22 08:21:36;;;;;;;3.60;1.10;;;;;;;5.91;100.00;94680.03;5087995;28;20204;-77
2022/11/22 08:24:03;;;;;;;2.77;1.00;;;;;;;5.89;100.00;94692.03;5091342;28;20208;-76
2022/11/22 08:26:31;;;;;;;2.23;1.60;;;;;;;5.99;100.00;94709.09;5073907;28;20205;-75
2022/11/22 08:28:58;;;;;;;3.00;1.80;;;;;;;6.04;100.00;94701.13;5074392;28;20276;-76
2022/11/22 08:31:27;;;;;;;1.40;1.20;;;;;;;6.03;100.00;94698.72;5081748;28;20230;-77
2022/11/22 08:33:54;;;;;;;1.07;0.97;;;;;;;6.06;100.00;94698.22;5091217;28;20295;-76
2022/11/22 08:36:21;;;;;;;1.20;1.10;;;;;;;6.08;100.00;94696.09;5100972;28;20200;-76
2022/11/22 08:38:50;;;;;;;1.20;1.00;;;;;;;6.08;100.00;94694.25;5086966;28;20288;-76
2022/11/22 08:41:17;;;;;;;1.87;1.53;;;;;;;6.10;100.00;94702.03;5086607;28;20201;-76
2022/11/22 08:43:44;;;;;;;4.37;2.70;;;;;;;6.10;100.00;94706.59;5089278;28;20204;-77
2022/11/22 08:46:11;;;;;;;3.30;1.70;;;;;;;6.12;100.00;94704.50;5088956;28;20212;-76
2022/11/22 08:48:39;;;;;;;2.13;1.93;;;;;;;6.12;100.00;94693.78;5089495;28;20199;-76
2022/11/22 08:51:08;;;;;;;2.77;1.50;;;;;;;6.20;100.00;94707.56;5086391;28;20232;-77
2022/11/22 08:53:38;;;;;;;1.20;1.10;;;;;;;6.23;100.00;94700.91;5090384;28;20215;-76
2022/11/22 08:56:09;;;;;;;1.30;1.00;;;;;;;6.27;100.00;94699.38;5089558;28;20211;-76
2022/11/22 08:58:37;;;;;;;1.03;0.90;;;;;;;6.28;100.00;94706.38;5098504;28;20201;-76
2022/11/22 09:01:05;;;;;;;1.17;1.03;;;;;;;6.26;100.00;94697.75;5085963;28;20197;-76
2022/11/22 09:03:34;;;;;;;1.10;1.00;;;;;;;6.26;100.00;94695.88;5086189;28;20209;-76
2022/11/22 09:06:02;;;;;;;2.30;1.23;;;;;;;6.32;100.00;94692.22;5076738;28;20205;-76
2022/11/22 09:08:29;;;;;;;2.20;1.20;;;;;;;6.38;100.00;94706.53;5099508;28;20218;-77
2022/11/22 09:11:00;;;;;;;3.00;1.10;;;;;;;6.44;100.00;94708.22;5089192;28;20220;-76
2022/11/22 09:13:29;;;;;;;2.73;1.30;;;;;;;6.48;100.00;94703.97;5089248;28;20212;-75
2022/11/22 09:16:00;;;;;;;3.00;1.30;;;;;;;6.55;100.00;94698.47;5088003;28;20211;-76
2022/11/22 09:18:27;;;;;;;1.60;1.50;;;;;;;6.54;100.00;94697.66;5096195;28;20204;-76
2022/11/22 09:20:58;;;;;;;3.40;1.63;;;;;;;6.61;100.00;94714.41;5076380;28;20244;-76
2022/11/22 09:23:25;;;;;;;1.47;1.37;;;;;;;6.66;100.00;94716.31;5092801;28;20296;-77
2022/11/22 09:25:57;;;;;;;1.40;1.30;;;;;;;6.62;100.00;94710.66;5086788;28;20208;-76
2022/11/22 09:28:25;;;;;;;3.53;1.57;;;;;;;6.66;100.00;94708.28;5090361;28;20220;-77
2022/11/22 09:31:01;;;;;;;1.30;1.07;;;;;;;6.70;100.00;94715.59;5077133;28;20240;-76
2022/11/22 09:33:28;;;;;;;1.73;1.40;;;;;;;6.75;100.00;94712.16;5089474;28;20226;-77
2022/11/22 09:36:00;;;;;;;1.23;1.10;;;;;;;6.83;100.00;94728.66;5083723;28;20209;-78
2022/11/22 09:38:27;;;;;;;2.77;1.90;;;;;;;6.86;100.00;94718.50;5080011;28;20204;-76
2022/11/22 09:40:54;;;;;;;1.43;1.20;;;;;;;6.92;100.00;94722.88;5093990;28;20201;-76
2022/11/22 09:43:32;;;;;;;1.63;1.10;;;;;;;6.92;100.00;94722.88;5087814;28;20208;-77
2022/11/22 09:46:22;;;;;;;2.83;1.70;;;;;;;6.98;100.00;94729.91;5086201;28;20316;-76
2022/11/22 09:49:16;;;;;;;3.20;1.23;;;;;;;7.00;100.00;94733.19;5091466;28;20216;-77
2022/11/22 09:51:49;;;;;;;1.73;1.10;;;;;;;7.03;100.00;94743.44;5101246;28;20234;-77
2022/11/22 09:54:22;;;;;;;1.80;1.07;;;;;;;6.95;100.00;94736.63;5094298;28;20206;-76
2022/11/22 09:56:54;;;;;;;2.77;0.90;;;;;;;7.10;100.00;94755.59;5094725;28;20222;-77
2022/11/22 09:59:25;;;;;;;1.97;1.07;;;;;;;7.08;100.00;94751.53;5083642;28;20217;-81
2022/11/22 10:01:59;;;;;;;2.93;1.27;;;;;;;7.11;100.00;94745.69;5080228;28;20246;-77
2022/11/22 10:04:32;;;;;;;2.40;1.40;;;;;;;7.09;100.00;94747.81;5087496;28;20205;-77
2022/11/22 10:07:05;;;;;;;2.27;1.20;;;;;;;7.03;100.00;94736.19;5088818;28;20229;-79
2022/11/22 10:09:39;;;;;;;3.33;1.30;;;;;;;7.06;100.00;94749.09;5076580;28;20214;-76
2022/11/22 10:12:13;;;;;;;3.37;1.23;;;;;;;7.11;100.00;94748.38;5092699;28;20252;-78
2022/11/22 10:14:48;;;;;;;1.87;1.20;;;;;;;7.14;100.00;94747.88;5083771;28;20200;-77
2022/11/22 10:17:35;;;;;;;2.90;1.17;;;;;;;7.11;100.00;94751.06;5081907;28;20219;-78
2022/11/22 10:20:07;;;;;;;1.83;1.10;;;;;;;7.12;100.00;94752.69;5090447;28;20308;-77
2022/11/22 10:22:35;;;;;;;2.07;1.00;;;;;;;7.00;100.00;94741.22;5076262;28;20213;-77
2022/11/22 10:25:09;;;;;;;1.57;1.00;;;;;;;7.17;100.00;94758.09;5099849;28;20192;-77
2022/11/22 10:27:37;;;;;;;3.40;1.03;;;;;;;7.14;100.00;94758.63;5083487;28;20201;-77
2022/11/22 10:30:13;;;;;;;1.80;0.83;;;;;;;7.02;100.00;94749.84;5093417;28;20207;-77
2022/11/22 10:32:51;;;;;;;2.47;1.50;;;;;;;7.02;100.00;94749.84;5091439;28;20212;-77
2022/11/22 10:35:39;;;;;;;4.50;1.33;;;;;;;7.14;100.00;94748.69;5084423;28;20235;-76
2022/11/22 10:38:29;;;;;;;2.93;1.27;;;;;;;7.22;100.00;94748.28;5087730;28;20216;-77
2022/11/22 10:41:05;;;;;;;4.43;1.70;;;;;;;7.20;100.00;94744.19;5096596;28;20215;-78
2022/11/22 10:43:41;;;;;;;4.47;1.37;;;;;;;7.26;100.00;94750.44;5087031;28;20209;-78
2022/11/22 10:46:16;;;;;;;3.33;2.10;;;;;;;7.31;100.00;94745.97;5098507;28;20213;-77
2022/11/22 10:48:51;;;;;;;2.80;1.13;;;;;;;7.44;100.00;94742.91;5096279;28;20195;-77
2022/11/22 10:51:25;;;;;;;2.47;1.50;;;;;;;7.57;100.00;94737.16;5084072;28;20304;-77
2022/11/22 10:54:07;;;;;;;4.03;1.27;;;;;;;7.52;100.00;94731.72;5096433;28;20234;-78
2022/11/22 10:56:45;;;;;;;2.97;1.27;;;;;;;7.57;100.00;94742.50;5093767;28;20196;-77
2022/11/22 10:59:28;;;;;;;2.23;1.57;;;;;;;7.66;100.00;94734.81;5095764;28;20295;-77
2022/11/22 11:02:03;;;;;;;3.57;1.20;;;;;;;7.52;100.00;94718.28;5076501;28;20228;-77
2022/11/22 11:04:35;;;;;;;2.70;1.10;;;;;;;7.57;100.00;94720.25;5090688;28;20251;-77
2022/11/22 11:07:06;;;;;;;4.53;1.50;;;;;;;7.58;100.00;94719.97;5090708;28;20204;-78
2022/11/22 11:09:38;;;;;;;1.97;1.30;;;;;;;7.62;100.00;94738.28;5101067;28;20204;-78
2022/11/22 11:12:14;;;;;;;4.10;1.90;;;;;;;7.68;100.00;94731.91;5081857;28;20331;-78
2022/11/22 11:14:46;;;;;;;2.97;1.20;;;;;;;7.73;100.00;94730.09;5088342;28;20213;-78
2022/11/22 11:17:17;;;;;;;3.30;1.27;;;;;;;7.78;100.00;94726.63;5092246;28;20227;-77
2022/11/22 11:19:50;;;;;;;3.13;1.63;;;;;;;7.80;100.00;94724.53;5099618;28;20209;-78
2022/11/22 11:22:22;;;;;;;5.00;1.63;;;;;;;7.81;100.00;94735.03;5087466;28;20240;-77
2022/11/22 11:24:49;;;;;;;2.53;1.37;;;;;;;7.87;100.00;94733.19;5089395;28;20205;-78
2022/11/22 11:27:19;;;;;;;1.80;1.10;;;;;;;8.00;100.00;94735.47;5084970;28;20197;-77
2022/11/22 11:29:47;;;;;;;2.93;1.30;;;;;;;7.92;100.00;94734.03;5085999;28;20197;-77
2022/11/22 11:32:16;;;;;;;2.47;1.10;;;;;;;7.85;100.00;94716.50;5090867;28;20228;-77
2022/11/22 11:34:52;;;;;;;3.40;1.20;;;;;;;7.89;100.00;94728.38;5084405;28;20241;-77
2022/11/22 11:37:25;;;;;;;2.90;1.07;;;;;;;7.85;100.00;94711.13;5095212;28;20307;-77
2022/11/22 11:39:53;;;;;;;3.73;1.13;;;;;;;8.00;100.00;94722.03;5082402;28;20288;-77
2022/11/22 11:42:26;;;;;;;3.07;1.40;;;;;;;7.91;100.00;94710.91;5085550;28;20227;-81
2022/11/22 11:44:54;;;;;;;5.67;1.57;;;;;;;7.96;100.00;94715.56;5083902;28;20193;-79
2022/11/22 11:47:32;;;;;;;2.23;1.30;;;;;;;7.92;100.00;94715.22;5085515;28;20207;-78
2022/11/22 11:50:01;;;;;;;2.63;1.20;;;;;;;7.91;100.00;94715.50;5088475;28;20304;-79
2022/11/22 11:52:30;;;;;;;1.63;1.10;;;;;;;7.85;100.00;94722.69;5089950;28;20209;-77
2022/11/22 11:55:00;;;;;;;2.00;1.30;;;;;;;7.86;100.00;94715.44;5082001;28;20257;-79
2022/11/22 11:57:30;;;;;;;1.77;1.10;;;;;;;7.85;100.00;94711.94;5097955;28;20196;-78